createdAt,value
2023-02-12T00:02:18.585Z,4.25
2023-02-12T00:04:48.767Z,6.00
2023-02-12T00:07:16.124Z,7.53
2023-02-12T00:09:43.127Z,9.30
2023-02-12T00:12:11.131Z,4.22
2023-02-12T00:14:38.285Z,8.60
2023-02-12T00:17:05.556Z,3.83
2023-02-12T00:19:32.501Z,6.72
2023-02-12T00:22:00.477Z,6.53
2023-02-12T00:24:28.023Z,4.93
2023-02-12T00:26:54.981Z,6.57
2023-02-12T00:29:21.957Z,8.05
2023-02-12T00:31:49.097Z,4.80
2023-02-12T00:34:16.970Z,8.68
2023-02-12T00:36:44.173Z,4.50
2023-02-12T00:39:11.668Z,7.00
2023-02-12T00:41:38.630Z,3.35
2023-02-12T00:44:05.900Z,6.45
2023-02-12T00:46:32.785Z,4.28
2023-02-12T00:49:00.192Z,4.97
2023-02-12T00:51:27.062Z,3.65
2023-02-12T00:53:54.334Z,4.78
2023-02-12T00:56:21.711Z,3.70
2023-02-12T00:58:48.997Z,4.93
2023-02-12T01:01:15.910Z,5.43
2023-02-12T01:03:42.879Z,4.88
2023-02-12T01:06:09.778Z,4.70
2023-02-12T01:08:36.666Z,3.97
2023-02-12T01:11:06.281Z,4.10
2023-02-12T01:13:35.052Z,5.03
2023-02-12T01:16:17.973Z,4.55
2023-02-12T01:18:45.548Z,4.20
2023-02-12T01:21:21.738Z,5.72
2023-02-12T01:23:49.704Z,3.97
2023-02-12T01:26:17.664Z,3.75
2023-02-12T01:28:51.997Z,6.35
2023-02-12T01:31:25.627Z,4.07
2023-02-12T01:33:58.967Z,4.50
2023-02-12T01:36:26.941Z,3.72
2023-02-12T01:38:54.203Z,4.07
2023-02-12T01:41:29.131Z,4.43
2023-02-12T01:44:14.256Z,3.03
2023-02-12T01:46:41.887Z,3.13
2023-02-12T01:49:16.652Z,3.28
2023-02-12T01:51:46.355Z,3.08
2023-02-12T01:54:17.521Z,3.28
2023-02-12T01:56:44.851Z,3.30
2023-02-12T01:59:13.035Z,2.78
2023-02-12T02:01:40.089Z,2.55
2023-02-12T02:04:15.083Z,4.50
2023-02-12T02:06:52.622Z,3.33
2023-02-12T02:09:20.161Z,2.72
2023-02-12T02:12:05.628Z,2.35
2023-02-12T02:14:32.855Z,2.75
2023-02-12T02:17:27.741Z,2.65
2023-02-12T02:20:22.997Z,4.00
2023-02-12T02:23:08.722Z,2.90
2023-02-12T02:25:58.086Z,2.58
2023-02-12T02:28:53.421Z,2.95
2023-02-12T02:31:38.137Z,3.28
2023-02-12T02:34:20.283Z,2.90
2023-02-12T02:37:00.029Z,4.50
2023-02-12T02:39:48.627Z,3.45
2023-02-12T02:42:32.302Z,2.92
2023-02-12T02:45:18.838Z,2.78
2023-02-12T02:47:55.390Z,3.47
2023-02-12T02:50:27.088Z,3.25
2023-02-12T02:53:02.021Z,4.63
2023-02-12T02:55:47.134Z,2.72
2023-02-12T02:58:16.510Z,3.25
2023-02-12T03:00:53.794Z,3.58
2023-02-12T03:03:26.376Z,4.53
2023-02-12T03:05:59.309Z,3.40
2023-02-12T03:08:34.384Z,3.97
2023-02-12T03:11:20.985Z,2.90
2023-02-12T03:13:52.683Z,4.85
2023-02-12T03:16:27.616Z,3.10
2023-02-12T03:19:02.453Z,4.53
2023-02-12T03:21:35.392Z,3.20
2023-02-12T03:24:15.943Z,3.25
2023-02-12T03:26:50.796Z,4.22
2023-02-12T03:29:17.893Z,2.88
2023-02-12T03:31:56.786Z,2.60
2023-02-12T03:34:50.634Z,4.13
2023-02-12T03:37:25.106Z,3.13
2023-02-12T03:39:58.391Z,2.78
2023-02-12T03:42:39.555Z,3.10
2023-02-12T03:45:28.794Z,3.70
2023-02-12T03:48:04.709Z,4.85
2023-02-12T03:50:37.529Z,2.60
2023-02-12T03:53:06.080Z,2.95
2023-02-12T03:55:37.943Z,2.75
2023-02-12T03:58:09.532Z,6.97
2023-02-12T04:00:38.818Z,2.90
2023-02-12T04:03:07.159Z,4.40
2023-02-12T04:05:34.477Z,2.90
2023-02-12T04:08:04.393Z,3.60
2023-02-12T04:11:11.677Z,2.60
2023-02-12T04:14:00.938Z,2.58
2023-02-12T04:16:40.992Z,3.20
2023-02-12T04:19:13.063Z,2.70
2023-02-12T04:21:58.358Z,2.80
2023-02-12T04:25:22.272Z,2.90
2023-02-12T04:28:01.020Z,3.17
2023-02-12T04:30:37.820Z,3.10
2023-02-12T04:33:07.208Z,2.75
2023-02-12T04:35:47.129Z,3.25
2023-02-12T04:38:19.929Z,3.05
2023-02-12T04:40:48.209Z,2.75
2023-02-12T04:43:15.434Z,3.28
2023-02-12T04:45:42.812Z,4.38
2023-02-12T04:48:10.707Z,3.83
2023-02-12T04:50:42.845Z,3.10
2023-02-12T04:53:10.821Z,3.30
2023-02-12T04:55:38.021Z,3.05
2023-02-12T04:58:05.691Z,2.95
2023-02-12T05:00:33.241Z,3.95
2023-02-12T05:03:00.113Z,3.13
2023-02-12T05:05:27.619Z,3.05
2023-02-12T05:07:54.473Z,4.22
2023-02-12T05:10:21.395Z,2.92
2023-02-12T05:12:48.202Z,3.65
2023-02-12T05:15:15.258Z,2.83
2023-02-12T05:17:42.498Z,2.90
2023-02-12T05:20:10.585Z,3.08
2023-02-12T05:22:37.560Z,2.90
2023-02-12T05:25:05.732Z,4.88
2023-02-12T05:27:33.027Z,6.22
2023-02-12T05:29:59.870Z,3.90
2023-02-12T05:32:27.097Z,4.03
2023-02-12T05:34:54.302Z,3.97
2023-02-12T05:37:21.582Z,3.28
2023-02-12T05:39:50.488Z,2.67
2023-02-12T05:42:17.752Z,3.15
2023-02-12T05:44:45.196Z,3.42
2023-02-12T05:47:12.031Z,3.00
2023-02-12T05:49:38.880Z,2.75
2023-02-12T05:52:06.181Z,2.85
2023-02-12T05:54:33.010Z,3.13
2023-02-12T05:56:59.864Z,4.05
2023-02-12T05:59:27.117Z,5.65
2023-02-12T06:01:54.002Z,5.72
2023-02-12T06:04:27.196Z,4.25
2023-02-12T06:06:55.859Z,3.38
2023-02-12T06:09:23.638Z,3.08
2023-02-12T06:11:50.528Z,3.13
2023-02-12T06:14:19.643Z,3.00
2023-02-12T06:16:48.831Z,3.80
2023-02-12T06:19:16.275Z,3.42
2023-02-12T06:21:44.845Z,3.63
2023-02-12T06:24:13.626Z,3.08
2023-02-12T06:26:41.036Z,2.95
2023-02-12T06:29:08.266Z,3.45
2023-02-12T06:31:36.909Z,4.78
2023-02-12T06:34:06.730Z,3.70
2023-02-12T06:36:34.050Z,4.53
2023-02-12T06:39:02.778Z,3.80
2023-02-12T06:41:30.207Z,4.10
2023-02-12T06:43:57.477Z,3.53
2023-02-12T06:46:24.776Z,4.90
2023-02-12T06:48:56.601Z,4.15
2023-02-12T06:51:23.963Z,3.47
2023-02-12T06:53:52.326Z,4.03
2023-02-12T06:56:20.483Z,4.00
2023-02-12T06:58:52.541Z,6.40
2023-02-12T07:01:22.900Z,5.78
2023-02-12T07:03:51.511Z,8.02
2023-02-12T07:06:18.886Z,5.97
2023-02-12T07:08:46.089Z,4.20
2023-02-12T07:11:13.204Z,4.88
2023-02-12T07:13:44.679Z,4.03
2023-02-12T07:16:17.191Z,4.22
2023-02-12T07:18:44.923Z,4.20
2023-02-12T07:21:13.604Z,3.45
2023-02-12T07:23:41.261Z,3.38
2023-02-12T07:26:11.945Z,5.28
2023-02-12T07:28:39.974Z,3.35
2023-02-12T07:31:21.988Z,4.03
2023-02-12T07:33:49.618Z,3.55
2023-02-12T07:36:18.710Z,3.30
2023-02-12T07:38:45.868Z,3.08
2023-02-12T07:41:24.350Z,3.53
2023-02-12T07:43:56.926Z,28.75
2023-02-12T07:46:30.094Z,6.28
2023-02-12T07:48:59.194Z,3.78
2023-02-12T07:51:27.686Z,3.28
2023-02-12T07:53:54.922Z,3.20
2023-02-12T07:56:24.803Z,4.13
2023-02-12T07:58:53.610Z,3.88
2023-02-12T08:01:23.501Z,3.22
2023-02-12T08:03:51.163Z,6.10
2023-02-12T08:06:20.610Z,5.43
2023-02-12T08:08:47.993Z,3.30
2023-02-12T08:11:15.794Z,3.33
2023-02-12T08:13:43.042Z,4.05
2023-02-12T08:16:20.681Z,3.28
2023-02-12T08:18:47.928Z,2.72
2023-02-12T08:21:21.178Z,2.70
2023-02-12T08:23:50.744Z,4.00
2023-02-12T08:26:32.422Z,3.42
2023-02-12T08:29:08.357Z,3.22
2023-02-12T08:31:40.876Z,3.17
2023-02-12T08:34:15.404Z,2.38
2023-02-12T08:36:42.697Z,5.35
2023-02-12T08:39:10.787Z,1.95
2023-02-12T08:41:37.773Z,5.70
2023-02-12T08:44:05.642Z,2.97
2023-02-12T08:46:35.051Z,39.97
2023-02-12T08:49:12.120Z,4.85
2023-02-12T08:51:41.301Z,4.38
2023-02-12T08:54:12.647Z,3.20
2023-02-12T08:56:40.496Z,2.13
2023-02-12T08:59:09.302Z,2.92
2023-02-12T09:01:43.649Z,2.67
2023-02-12T09:04:21.550Z,2.55
2023-02-12T09:06:48.860Z,2.40
2023-02-12T09:09:16.242Z,2.75
2023-02-12T09:11:43.299Z,3.40
2023-02-12T09:14:13.601Z,2.58
2023-02-12T09:16:41.272Z,2.72
2023-02-12T09:19:09.680Z,2.72
2023-02-12T09:21:36.928Z,3.75
2023-02-12T09:24:03.874Z,2.55
2023-02-12T09:26:31.203Z,2.08
2023-02-12T09:28:59.377Z,3.65
2023-02-12T09:31:29.283Z,3.17
2023-02-12T09:34:00.716Z,2.38
2023-02-12T09:36:27.911Z,3.80
2023-02-12T09:38:55.218Z,2.58
2023-02-12T09:41:22.651Z,2.75
2023-02-12T09:43:53.077Z,5.07
2023-02-12T09:46:39.529Z,3.58
2023-02-12T09:49:26.530Z,3.58
2023-02-12T09:51:55.164Z,3.00
2023-02-12T09:54:26.012Z,5.57
2023-02-12T09:56:59.431Z,5.40
2023-02-12T09:59:26.717Z,2.67
2023-02-12T10:01:54.040Z,3.03
2023-02-12T10:04:22.667Z,5.70
2023-02-12T10:07:12.607Z,3.67
2023-02-12T10:09:45.706Z,3.60
2023-02-12T10:12:28.264Z,3.10
2023-02-12T10:15:16.021Z,2.40
2023-02-12T10:17:52.891Z,2.45
2023-02-12T10:20:58.712Z,2.25
2023-02-12T10:23:41.829Z,5.20
2023-02-12T10:26:32.305Z,4.18
2023-02-12T10:29:09.522Z,7.25
2023-02-12T10:31:40.924Z,4.18
2023-02-12T10:34:32.749Z,2.33
2023-02-12T10:37:12.683Z,2.13
2023-02-12T10:39:48.804Z,2.50
2023-02-12T10:42:22.128Z,3.42
2023-02-12T10:44:49.357Z,4.95
2023-02-12T10:47:20.631Z,4.93
2023-02-12T10:50:02.317Z,5.28
2023-02-12T10:52:48.608Z,5.78
2023-02-12T10:55:36.962Z,13.65
2023-02-12T10:58:05.120Z,5.95
2023-02-12T11:00:33.441Z,4.53
2023-02-12T11:03:12.608Z,4.78
2023-02-12T11:05:42.463Z,5.95
2023-02-12T11:08:32.153Z,5.40
2023-02-12T11:11:27.819Z,5.18
2023-02-12T11:14:16.392Z,6.88
2023-02-12T11:16:58.882Z,5.10
2023-02-12T11:19:32.015Z,4.80
2023-02-12T11:22:11.654Z,4.78
2023-02-12T11:24:38.831Z,6.03
2023-02-12T11:27:31.774Z,5.05
2023-02-12T11:30:30.532Z,4.65
2023-02-12T11:33:39.019Z,5.47
2023-02-12T11:36:15.347Z,6.60
2023-02-12T11:38:52.815Z,4.60
2023-02-12T11:41:41.356Z,4.93
2023-02-12T11:44:28.655Z,4.78
2023-02-12T11:47:09.637Z,9.50
2023-02-12T11:49:50.523Z,5.35
2023-02-12T11:52:22.253Z,3.55
2023-02-12T11:54:51.582Z,5.05
2023-02-12T11:57:42.848Z,5.20
2023-02-12T12:00:38.652Z,4.93
2023-02-12T12:03:20.308Z,5.75
2023-02-12T12:05:51.419Z,4.05
2023-02-12T12:08:29.568Z,7.30
2023-02-12T12:11:28.257Z,5.15
2023-02-12T12:14:16.760Z,3.88
2023-02-12T12:17:09.461Z,4.78
2023-02-12T12:19:54.925Z,4.50
2023-02-12T12:22:42.480Z,4.95
2023-02-12T12:25:30.969Z,4.13
2023-02-12T12:28:17.593Z,4.50
2023-02-12T12:30:47.577Z,4.95
2023-02-12T12:33:46.529Z,6.22
2023-02-12T12:36:13.491Z,6.45
2023-02-12T12:39:01.470Z,8.35
2023-02-12T12:41:42.393Z,6.90
2023-02-12T12:44:37.177Z,8.02
2023-02-12T12:47:19.068Z,6.72
2023-02-12T12:49:54.652Z,7.90
2023-02-12T12:52:24.729Z,7.13
2023-02-12T12:55:12.724Z,6.78
2023-02-12T12:57:47.013Z,9.23
2023-02-12T13:00:31.988Z,8.38
2023-02-12T13:03:17.229Z,12.32
2023-02-12T13:05:52.049Z,9.73
2023-02-12T13:09:16.212Z,12.45
2023-02-12T13:12:16.656Z,9.77
2023-02-12T13:15:04.586Z,13.88
2023-02-12T13:17:37.016Z,10.43
2023-02-12T13:20:18.367Z,8.80
2023-02-12T13:22:50.597Z,9.10
2023-02-12T13:25:42.756Z,9.60
2023-02-12T13:28:41.933Z,8.07
2023-02-12T13:31:32.496Z,11.38
2023-02-12T13:34:04.826Z,13.40
2023-02-12T13:36:35.065Z,10.85
2023-02-12T13:39:36.640Z,8.15
2023-02-12T13:42:43.858Z,9.00
2023-02-12T13:45:29.573Z,10.10
2023-02-12T13:48:18.016Z,8.48
2023-02-12T13:51:00.998Z,11.70
2023-02-12T13:53:47.485Z,11.55
2023-02-12T13:56:31.875Z,14.27
2023-02-12T13:59:00.967Z,7.55
2023-02-12T14:01:49.614Z,7.25
2023-02-12T14:04:19.687Z,6.65
2023-02-12T14:07:14.032Z,8.13
2023-02-12T14:09:42.639Z,8.07
2023-02-12T14:12:15.045Z,8.38
2023-02-12T14:14:48.707Z,7.50
2023-02-12T14:17:30.949Z,8.15
2023-02-12T14:20:30.509Z,8.88
2023-02-12T14:23:20.831Z,9.85
2023-02-12T14:25:58.789Z,12.00
2023-02-12T14:28:40.233Z,8.25
2023-02-12T14:31:27.397Z,8.52
2023-02-12T14:34:06.288Z,10.20
2023-02-12T14:36:33.619Z,6.32
2023-02-12T14:39:28.018Z,9.45
2023-02-12T14:42:15.683Z,9.27
2023-02-12T14:44:55.026Z,7.15
2023-02-12T14:47:30.526Z,7.70
2023-02-12T14:50:07.387Z,6.13
2023-02-12T14:52:40.917Z,8.95
2023-02-12T14:55:31.027Z,7.25
2023-02-12T14:58:07.636Z,7.00
2023-02-12T15:00:40.463Z,11.75
2023-02-12T15:03:14.006Z,10.65
2023-02-12T15:06:05.876Z,11.43
2023-02-12T15:08:48.936Z,9.85
2023-02-12T15:11:38.667Z,11.15
2023-02-12T15:14:23.982Z,8.10
2023-02-12T15:17:14.988Z,10.70
2023-02-12T15:19:51.313Z,8.27
2023-02-12T15:22:25.151Z,19.83
2023-02-12T15:24:52.044Z,14.27
2023-02-12T15:27:20.548Z,9.45
2023-02-12T15:29:51.202Z,8.70
2023-02-12T15:32:27.620Z,10.25
2023-02-12T15:34:55.619Z,9.40
2023-02-12T15:37:29.128Z,12.18
2023-02-12T15:39:59.533Z,9.65
2023-02-12T15:42:38.466Z,10.57
2023-02-12T15:45:13.962Z,12.05
2023-02-12T15:47:41.885Z,14.65
2023-02-12T15:50:18.270Z,17.58
2023-02-12T15:52:47.501Z,15.60
2023-02-12T15:55:21.636Z,13.98
2023-02-12T15:57:59.734Z,12.70
2023-02-12T16:00:47.625Z,15.30
2023-02-12T16:03:33.246Z,18.10
2023-02-12T16:06:16.672Z,16.25
2023-02-12T16:08:46.019Z,14.10
2023-02-12T16:11:16.875Z,14.60
2023-02-12T16:14:00.820Z,17.33
2023-02-12T16:16:31.283Z,16.45
2023-02-12T16:19:24.443Z,17.40
2023-02-12T16:22:23.080Z,19.23
2023-02-12T16:24:52.730Z,18.42
2023-02-12T16:27:23.195Z,15.15
2023-02-12T16:29:53.445Z,22.25
2023-02-12T16:32:41.867Z,20.60
2023-02-12T16:35:12.362Z,25.00
2023-02-12T16:37:39.206Z,27.90
2023-02-12T16:40:18.028Z,23.27
2023-02-12T16:42:47.866Z,19.23
2023-02-12T16:45:26.950Z,24.48
2023-02-12T16:48:23.369Z,21.13
2023-02-12T16:50:56.093Z,22.73
2023-02-12T16:53:45.639Z,18.00
2023-02-12T16:56:16.029Z,40.50
2023-02-12T16:58:43.250Z,22.17
2023-02-12T17:01:10.723Z,19.92
2023-02-12T17:03:38.901Z,19.35
2023-02-12T17:06:06.233Z,24.65
2023-02-12T17:08:33.052Z,25.15
2023-02-12T17:11:00.372Z,27.02
2023-02-12T17:13:27.286Z,32.47
2023-02-12T17:15:57.316Z,34.15
2023-02-12T17:18:25.448Z,43.78
2023-02-12T17:20:56.157Z,37.45
2023-02-12T17:23:23.948Z,43.85
2023-02-12T17:25:51.246Z,36.60
2023-02-12T17:28:18.208Z,34.28
2023-02-12T17:30:45.165Z,38.03
2023-02-12T17:33:12.792Z,37.78
2023-02-12T17:35:40.026Z,40.08
2023-02-12T17:38:07.367Z,37.95
2023-02-12T17:40:38.952Z,40.97
2023-02-12T17:43:06.533Z,30.08
2023-02-12T17:45:33.866Z,34.22
2023-02-12T17:48:01.199Z,39.13
2023-02-12T17:50:28.424Z,33.45
2023-02-12T17:52:55.697Z,33.47
2023-02-12T17:55:22.647Z,32.15
2023-02-12T17:57:53.575Z,31.48
2023-02-12T18:00:21.221Z,28.27
2023-02-12T18:02:49.010Z,25.38
2023-02-12T18:05:16.337Z,36.50
2023-02-12T18:07:43.335Z,36.10
2023-02-12T18:10:11.746Z,35.90
2023-02-12T18:12:38.784Z,33.40
2023-02-12T18:15:07.550Z,35.85
2023-02-12T18:17:35.770Z,30.92
2023-02-12T18:20:03.035Z,32.58
2023-02-12T18:22:29.933Z,28.08
2023-02-12T18:24:57.724Z,28.35
2023-02-12T18:27:25.004Z,30.52
2023-02-12T18:29:52.215Z,32.92
2023-02-12T18:32:19.182Z,34.10
2023-02-12T18:34:46.728Z,54.40
2023-02-12T18:37:13.990Z,37.47
2023-02-12T18:39:40.915Z,32.70
2023-02-12T18:42:08.821Z,32.22
2023-02-12T18:44:36.140Z,33.58
2023-02-12T18:47:03.432Z,34.67
2023-02-12T18:49:30.884Z,41.33
2023-02-12T18:51:58.163Z,40.75
2023-02-12T18:54:25.124Z,42.33
2023-02-12T18:56:53.441Z,39.78
2023-02-12T18:59:21.243Z,47.35
2023-02-12T19:01:50.749Z,46.88
2023-02-12T19:04:20.208Z,46.58
2023-02-12T19:06:50.405Z,49.90
2023-02-12T19:09:20.285Z,49.22
2023-02-12T19:11:49.157Z,43.67
2023-02-12T19:14:18.033Z,43.72
2023-02-12T19:16:46.002Z,48.78
2023-02-12T19:19:14.556Z,44.47
2023-02-12T19:21:41.927Z,51.92
2023-02-12T19:24:09.185Z,47.88
2023-02-12T19:26:36.557Z,50.47
2023-02-12T19:29:05.041Z,48.78
2023-02-12T19:31:37.978Z,49.38
2023-02-12T19:36:36.255Z,54.05
2023-02-12T19:39:04.540Z,52.92
2023-02-12T19:41:32.916Z,57.42
2023-02-12T19:44:01.518Z,54.88
2023-02-12T19:46:31.005Z,57.05
2023-02-12T19:49:00.314Z,63.92
2023-02-12T19:51:29.900Z,51.97
2023-02-12T19:54:04.874Z,50.85
2023-02-12T19:56:31.831Z,49.05
2023-02-12T19:58:59.020Z,49.92
2023-02-12T20:01:26.359Z,42.65
2023-02-12T20:03:53.722Z,48.10
2023-02-12T20:06:24.252Z,37.80
2023-02-12T20:08:51.584Z,40.60
2023-02-12T20:11:25.359Z,40.53
2023-02-12T20:13:52.897Z,31.73
2023-02-12T20:16:22.189Z,39.58
2023-02-12T20:18:51.859Z,31.83
2023-02-12T20:21:22.283Z,33.38
2023-02-12T20:23:49.563Z,35.35
2023-02-12T20:26:17.711Z,37.88
2023-02-12T20:28:45.246Z,37.03
2023-02-12T20:31:20.922Z,39.13
2023-02-12T20:33:48.741Z,39.78
2023-02-12T20:36:16.215Z,34.42
2023-02-12T20:38:44.806Z,34.97
2023-02-12T20:41:12.284Z,35.28
2023-02-12T20:43:39.807Z,34.42
2023-02-12T20:46:09.600Z,33.45
2023-02-12T20:48:37.338Z,29.77
2023-02-12T20:51:09.309Z,36.65
2023-02-12T20:53:36.593Z,34.05
2023-02-12T20:56:06.979Z,34.38
2023-02-12T20:58:34.220Z,34.78
2023-02-12T21:01:06.247Z,33.10
2023-02-12T21:03:33.673Z,33.70
2023-02-12T21:06:01.490Z,31.08
2023-02-12T21:08:28.738Z,33.85
2023-02-12T21:11:03.904Z,30.40
2023-02-12T21:13:30.749Z,28.45
2023-02-12T21:16:05.427Z,31.17
2023-02-12T21:18:32.689Z,32.17
2023-02-12T21:21:13.660Z,33.00
2023-02-12T21:23:41.110Z,30.83
2023-02-12T21:26:11.225Z,31.67
2023-02-12T21:28:39.062Z,28.58
2023-02-12T21:31:11.984Z,36.05
2023-02-12T21:33:40.781Z,35.03
2023-02-12T21:36:10.212Z,37.05
2023-02-12T21:38:40.806Z,37.15
2023-02-12T21:41:15.788Z,29.67
2023-02-12T21:43:45.492Z,31.45
2023-02-12T21:46:12.964Z,31.58
2023-02-12T21:48:40.301Z,33.03
2023-02-12T21:51:16.498Z,32.47
2023-02-12T21:53:43.723Z,31.98
2023-02-12T21:56:10.571Z,36.28
2023-02-12T21:58:37.852Z,34.33
2023-02-12T22:01:12.520Z,33.75
2023-02-12T22:03:39.843Z,38.40
2023-02-12T22:06:08.858Z,39.65
2023-02-12T22:08:36.617Z,38.13
2023-02-12T22:11:05.209Z,35.22
2023-02-12T22:13:32.986Z,34.42
2023-02-12T22:16:36.416Z,36.83
2023-02-12T22:19:04.038Z,33.85
2023-02-12T22:21:35.170Z,27.40
2023-02-12T22:24:04.417Z,34.88
2023-02-12T22:26:32.699Z,36.92
2023-02-12T22:29:08.519Z,32.92
2023-02-12T22:31:37.551Z,34.78
2023-02-12T22:34:07.255Z,36.00
2023-02-12T22:36:36.705Z,31.25
2023-02-12T22:39:04.278Z,34.58
2023-02-12T22:41:31.695Z,37.25
2023-02-12T22:44:00.789Z,35.90
2023-02-12T22:46:28.077Z,27.52
2023-02-12T22:48:55.598Z,31.80
2023-02-12T22:51:25.658Z,37.67
2023-02-12T22:53:53.254Z,32.85
2023-02-12T22:56:20.503Z,35.40
2023-02-12T22:58:48.065Z,35.97
2023-02-12T23:01:18.771Z,32.42
2023-02-12T23:03:46.330Z,41.08
2023-02-12T23:06:23.130Z,33.00
2023-02-12T23:08:56.373Z,37.28
2023-02-12T23:11:24.666Z,34.25
2023-02-12T23:13:52.470Z,34.83
2023-02-12T23:16:20.203Z,48.63
2023-02-12T23:18:47.392Z,31.15
2023-02-12T23:21:14.474Z,35.92
2023-02-12T23:23:41.671Z,34.15
2023-02-12T23:26:09.000Z,36.10
2023-02-12T23:28:35.893Z,35.00
2023-02-12T23:31:03.450Z,34.97
2023-02-12T23:33:30.439Z,36.13
2023-02-12T23:35:57.281Z,37.47
2023-02-12T23:38:24.085Z,40.10
2023-02-12T23:40:51.561Z,39.88
2023-02-12T23:43:18.801Z,45.65
2023-02-12T23:45:46.896Z,33.75
2023-02-12T23:48:14.645Z,40.17
2023-02-12T23:50:41.956Z,37.75
2023-02-12T23:53:10.219Z,37.85
2023-02-12T23:55:38.119Z,37.85
2023-02-12T23:58:06.014Z,44.50
